sensor_id;sensor_type;location;lat;lon;timestamp;pressure;altitude;pressure_sealevel;temperature;humidity
35435;BME280;21556;55.782;37.528;2023-05-20T00:02:07;100732.72;;;14.17;91.56
35435;BME280;21556;55.782;37.528;2023-05-20T00:04:33;100734.22;;;14.05;93.02
35435;BME280;21556;55.782;37.528;2023-05-20T00:06:59;100731.50;;;13.99;95.33
35435;BME280;21556;55.782;37.528;2023-05-20T00:09:25;100736.03;;;14.07;93.40
35435;BME280;21556;55.782;37.528;2023-05-20T00:11:52;100723.78;;;14.58;87.39
35435;BME280;21556;55.782;37.528;2023-05-20T00:14:18;100731.34;;;14.41;89.54
35435;BME280;21556;55.782;37.528;2023-05-20T00:16:46;100735.34;;;14.17;92.68
35435;BME280;21556;55.782;37.528;2023-05-20T00:19:13;100726.28;;;14.52;89.81
35435;BME280;21556;55.782;37.528;2023-05-20T00:21:39;100732.66;;;14.14;97.23
35435;BME280;21556;55.782;37.528;2023-05-20T00:24:05;100739.34;;;13.95;100.00
35435;BME280;21556;55.782;37.528;2023-05-20T00:26:31;100732.09;;;14.31;95.85
35435;BME280;21556;55.782;37.528;2023-05-20T00:28:57;100729.69;;;13.97;100.00
35435;BME280;21556;55.782;37.528;2023-05-20T00:31:24;100734.66;;;14.28;98.36
35435;BME280;21556;55.782;37.528;2023-05-20T00:33:57;100735.41;;;13.75;100.00
35435;BME280;21556;55.782;37.528;2023-05-20T00:36:23;100729.47;;;13.87;100.00
35435;BME280;21556;55.782;37.528;2023-05-20T00:38:50;100723.38;;;13.89;100.00
35435;BME280;21556;55.782;37.528;2023-05-20T00:41:18;100727.66;;;13.83;100.00
35435;BME280;21556;55.782;37.528;2023-05-20T00:43:46;100728.88;;;14.00;100.00
35435;BME280;21556;55.782;37.528;2023-05-20T00:46:12;100729.31;;;14.25;99.81
35435;BME280;21556;55.782;37.528;2023-05-20T00:48:42;100724.66;;;14.58;95.57
35435;BME280;21556;55.782;37.528;2023-05-20T00:51:10;100732.84;;;14.24;100.00
35435;BME280;21556;55.782;37.528;2023-05-20T00:53:36;100723.53;;;13.97;100.00
35435;BME280;21556;55.782;37.528;2023-05-20T00:56:03;100726.53;;;13.71;100.00
35435;BME280;21556;55.782;37.528;2023-05-20T00:58:30;100729.97;;;13.67;100.00
35435;BME280;21556;55.782;37.528;2023-05-20T01:00:57;100733.63;;;13.32;100.00
35435;BME280;21556;55.782;37.528;2023-05-20T01:03:23;100725.00;;;13.39;100.00
35435;BME280;21556;55.782;37.528;2023-05-20T01:05:51;100725.94;;;13.41;100.00
35435;BME280;21556;55.782;37.528;2023-05-20T01:08:18;100733.22;;;13.54;100.00
35435;BME280;21556;55.782;37.528;2023-05-20T01:10:45;100719.78;;;13.40;100.00
35435;BME280;21556;55.782;37.528;2023-05-20T01:13:17;100723.16;;;13.35;100.00
35435;BME280;21556;55.782;37.528;2023-05-20T01:15:46;100724.25;;;13.44;100.00
35435;BME280;21556;55.782;37.528;2023-05-20T01:18:14;100726.09;;;13.48;100.00
35435;BME280;21556;55.782;37.528;2023-05-20T01:20:49;100726.38;;;13.62;100.00
35435;BME280;21556;55.782;37.528;2023-05-20T01:23:15;100731.66;;;13.64;100.00
35435;BME280;21556;55.782;37.528;2023-05-20T01:25:42;100733.28;;;13.57;100.00
35435;BME280;21556;55.782;37.528;2023-05-20T01:28:08;100736.19;;;13.29;100.00
35435;BME280;21556;55.782;37.528;2023-05-20T01:30:37;100730.53;;;13.51;100.00
35435;BME280;21556;55.782;37.528;2023-05-20T01:33:09;100738.25;;;13.43;100.00
35435;BME280;21556;55.782;37.528;2023-05-20T01:35:38;100730.47;;;13.48;100.00
35435;BME280;21556;55.782;37.528;2023-05-20T01:38:06;100737.53;;;13.11;100.00
35435;BME280;21556;55.782;37.528;2023-05-20T01:40:33;100740.28;;;13.17;100.00
35435;BME280;21556;55.782;37.528;2023-05-20T01:43:02;100735.06;;;13.19;100.00
35435;BME280;21556;55.782;37.528;2023-05-20T01:45:30;100736.94;;;13.62;100.00
35435;BME280;21556;55.782;37.528;2023-05-20T01:47:56;100735.91;;;13.56;100.00
35435;BME280;21556;55.782;37.528;2023-05-20T01:50:22;100735.53;;;13.39;100.00
35435;BME280;21556;55.782;37.528;2023-05-20T01:52:48;100742.97;;;13.19;100.00
35435;BME280;21556;55.782;37.528;2023-05-20T01:55:14;100740.38;;;13.20;100.00
35435;BME280;21556;55.782;37.528;2023-05-20T01:57:41;100741.25;;;13.21;100.00
35435;BME280;21556;55.782;37.528;2023-05-20T02:00:07;100740.19;;;13.11;100.00
35435;BME280;21556;55.782;37.528;2023-05-20T02:02:40;100738.88;;;13.30;100.00
35435;BME280;21556;55.782;37.528;2023-05-20T02:05:09;100748.28;;;13.20;100.00
35435;BME280;21556;55.782;37.528;2023-05-20T02:07:36;100742.94;;;13.17;100.00
35435;BME280;21556;55.782;37.528;2023-05-20T02:10:06;100741.16;;;13.16;100.00
35435;BME280;21556;55.782;37.528;2023-05-20T02:12:36;100733.81;;;13.01;100.00
35435;BME280;21556;55.782;37.528;2023-05-20T02:15:08;100735.63;;;13.43;100.00
35435;BME280;21556;55.782;37.528;2023-05-20T02:17:35;100738.72;;;12.86;100.00
35435;BME280;21556;55.782;37.528;2023-05-20T02:20:23;100750.50;;;12.66;100.00
35435;BME280;21556;55.782;37.528;2023-05-20T02:22:50;100748.81;;;12.68;100.00
35435;BME280;21556;55.782;37.528;2023-05-20T02:25:16;100748.56;;;12.59;100.00
35435;BME280;21556;55.782;37.528;2023-05-20T02:27:44;100744.88;;;12.52;100.00
35435;BME280;21556;55.782;37.528;2023-05-20T02:30:10;100745.16;;;12.63;100.00
35435;BME280;21556;55.782;37.528;2023-05-20T02:32:37;100744.31;;;12.29;100.00
35435;BME280;21556;55.782;37.528;2023-05-20T02:35:04;100742.50;;;12.63;100.00
35435;BME280;21556;55.782;37.528;2023-05-20T02:37:32;100740.03;;;12.69;100.00
35435;BME280;21556;55.782;37.528;2023-05-20T02:39:59;100739.69;;;12.90;100.00
35435;BME280;21556;55.782;37.528;2023-05-20T02:42:25;100742.22;;;12.50;100.00
35435;BME280;21556;55.782;37.528;2023-05-20T02:44:51;100745.59;;;12.81;100.00
35435;BME280;21556;55.782;37.528;2023-05-20T02:47:24;100745.84;;;12.92;100.00
35435;BME280;21556;55.782;37.528;2023-05-20T02:49:50;100746.34;;;12.75;100.00
35435;BME280;21556;55.782;37.528;2023-05-20T02:52:16;100742.03;;;12.43;100.00
35435;BME280;21556;55.782;37.528;2023-05-20T02:54:43;100739.31;;;12.74;100.00
35435;BME280;21556;55.782;37.528;2023-05-20T02:57:09;100741.88;;;12.71;100.00
35435;BME280;21556;55.782;37.528;2023-05-20T02:59:35;100746.63;;;12.88;100.00
35435;BME280;21556;55.782;37.528;2023-05-20T03:02:02;100741.09;;;13.13;100.00
35435;BME280;21556;55.782;37.528;2023-05-20T03:04:28;100748.81;;;13.06;100.00
35435;BME280;21556;55.782;37.528;2023-05-20T03:06:57;100741.94;;;13.12;100.00
35435;BME280;21556;55.782;37.528;2023-05-20T03:09:24;100747.84;;;13.00;100.00
35435;BME280;21556;55.782;37.528;2023-05-20T03:11:50;100746.63;;;12.86;100.00
35435;BME280;21556;55.782;37.528;2023-05-20T03:14:16;100750.22;;;12.90;100.00
35435;BME280;21556;55.782;37.528;2023-05-20T03:16:43;100743.53;;;13.06;100.00
35435;BME280;21556;55.782;37.528;2023-05-20T03:19:11;100746.00;;;12.96;100.00
35435;BME280;21556;55.782;37.528;2023-05-20T03:21:37;100739.16;;;13.06;100.00
35435;BME280;21556;55.782;37.528;2023-05-20T03:24:06;100742.75;;;13.10;100.00
35435;BME280;21556;55.782;37.528;2023-05-20T03:26:33;100748.72;;;13.01;100.00
35435;BME280;21556;55.782;37.528;2023-05-20T03:29:04;100740.13;;;13.10;100.00
35435;BME280;21556;55.782;37.528;2023-05-20T03:31:30;100759.78;;;12.86;100.00
35435;BME280;21556;55.782;37.528;2023-05-20T03:33:56;100753.22;;;12.69;100.00
35435;BME280;21556;55.782;37.528;2023-05-20T03:36:22;100757.34;;;12.94;100.00
35435;BME280;21556;55.782;37.528;2023-05-20T03:38:49;100757.34;;;12.94;100.00
35435;BME280;21556;55.782;37.528;2023-05-20T03:41:15;100748.16;;;13.54;100.00
35435;BME280;21556;55.782;37.528;2023-05-20T03:43:42;100745.16;;;13.37;100.00
35435;BME280;21556;55.782;37.528;2023-05-20T03:46:09;100740.22;;;13.14;100.00
35435;BME280;21556;55.782;37.528;2023-05-20T03:48:35;100737.47;;;13.08;100.00
35435;BME280;21556;55.782;37.528;2023-05-20T03:51:03;100741.91;;;12.73;100.00
35435;BME280;21556;55.782;37.528;2023-05-20T03:53:29;100743.13;;;12.87;100.00
35435;BME280;21556;55.782;37.528;2023-05-20T03:55:56;100733.81;;;13.01;100.00
35435;BME280;21556;55.782;37.528;2023-05-20T03:58:23;100750.28;;;12.93;100.00
35435;BME280;21556;55.782;37.528;2023-05-20T04:00:49;100744.78;;;13.21;100.00
35435;BME280;21556;55.782;37.528;2023-05-20T04:03:18;100741.31;;;13.22;100.00
35435;BME280;21556;55.782;37.528;2023-05-20T04:05:45;100742.53;;;13.37;100.00
35435;BME280;21556;55.782;37.528;2023-05-20T04:08:16;100747.28;;;13.15;100.00
35435;BME280;21556;55.782;37.528;2023-05-20T04:10:45;100739.66;;;13.26;100.00
35435;BME280;21556;55.782;37.528;2023-05-20T04:13:11;100740.28;;;13.17;100.00
35435;BME280;21556;55.782;37.528;2023-05-20T04:15:38;100744.47;;;13.45;100.00
35435;BME280;21556;55.782;37.528;2023-05-20T04:18:04;100744.94;;;13.68;100.00
35435;BME280;21556;55.782;37.528;2023-05-20T04:20:31;100752.13;;;13.35;100.00
35435;BME280;21556;55.782;37.528;2023-05-20T04:22:57;100744.75;;;13.59;100.00
35435;BME280;21556;55.782;37.528;2023-05-20T04:25:24;100748.78;;;13.42;100.00
35435;BME280;21556;55.782;37.528;2023-05-20T04:27:53;100752.22;;;13.39;100.00
35435;BME280;21556;55.782;37.528;2023-05-20T04:30:19;100747.38;;;13.20;100.00
35435;BME280;21556;55.782;37.528;2023-05-20T04:32:48;100745.75;;;13.23;100.00
35435;BME280;21556;55.782;37.528;2023-05-20T04:35:18;100749.34;;;13.27;100.00
35435;BME280;21556;55.782;37.528;2023-05-20T04:37:51;100741.94;;;13.12;100.00
35435;BME280;21556;55.782;37.528;2023-05-20T04:40:19;100746.88;;;12.97;100.00
35435;BME280;21556;55.782;37.528;2023-05-20T04:42:47;100751.38;;;12.66;100.00
35435;BME280;21556;55.782;37.528;2023-05-20T04:45:14;100746.31;;;12.74;100.00
35435;BME280;21556;55.782;37.528;2023-05-20T04:47:41;100746.34;;;13.13;100.00
35435;BME280;21556;55.782;37.528;2023-05-20T04:50:09;100744.41;;;13.42;100.00
35435;BME280;21556;55.782;37.528;2023-05-20T04:52:37;100746.38;;;13.51;100.00
35435;BME280;21556;55.782;37.528;2023-05-20T04:55:06;100753.53;;;13.19;100.00
35435;BME280;21556;55.782;37.528;2023-05-20T04:57:36;100745.41;;;13.47;100.00
35435;BME280;21556;55.782;37.528;2023-05-20T05:00:06;100750.91;;;13.58;100.00
35435;BME280;21556;55.782;37.528;2023-05-20T05:02:36;100755.63;;;13.75;100.00
35435;BME280;21556;55.782;37.528;2023-05-20T05:05:04;100745.97;;;14.20;100.00
35435;BME280;21556;55.782;37.528;2023-05-20T05:07:34;100738.88;;;14.18;100.00
35435;BME280;21556;55.782;37.528;2023-05-20T05:10:00;100751.13;;;14.13;100.00
35435;BME280;21556;55.782;37.528;2023-05-20T05:12:33;100741.72;;;13.83;100.00
35435;BME280;21556;55.782;37.528;2023-05-20T05:14:59;100736.50;;;14.32;100.00
35435;BME280;21556;55.782;37.528;2023-05-20T05:17:27;100742.53;;;14.26;100.00
35435;BME280;21556;55.782;37.528;2023-05-20T05:19:55;100736.94;;;14.08;100.00
35435;BME280;21556;55.782;37.528;2023-05-20T05:22:22;100725.19;;;14.39;100.00
35435;BME280;21556;55.782;37.528;2023-05-20T05:24:48;100730.00;;;14.13;100.00
35435;BME280;21556;55.782;37.528;2023-05-20T05:27:15;100722.53;;;14.39;100.00
35435;BME280;21556;55.782;37.528;2023-05-20T05:29:41;100721.06;;;14.53;100.00
35435;BME280;21556;55.782;37.528;2023-05-20T05:32:07;100721.72;;;14.43;100.00
35435;BME280;21556;55.782;37.528;2023-05-20T05:34:33;100733.81;;;14.30;100.00
35435;BME280;21556;55.782;37.528;2023-05-20T05:36:59;100722.81;;;14.53;100.00
35435;BME280;21556;55.782;37.528;2023-05-20T05:39:25;100727.41;;;14.66;100.00
35435;BME280;21556;55.782;37.528;2023-05-20T05:41:53;100724.88;;;15.31;100.00
35435;BME280;21556;55.782;37.528;2023-05-20T05:44:21;100730.28;;;14.81;100.00
35435;BME280;21556;55.782;37.528;2023-05-20T05:46:47;100720.81;;;14.94;100.00
35435;BME280;21556;55.782;37.528;2023-05-20T05:49:16;100717.97;;;15.43;100.00
35435;BME280;21556;55.782;37.528;2023-05-20T05:51:49;100725.38;;;15.04;100.00
35435;BME280;21556;55.782;37.528;2023-05-20T05:54:22;100721.91;;;15.10;100.00
35435;BME280;21556;55.782;37.528;2023-05-20T05:56:51;100722.97;;;15.21;100.00
35435;BME280;21556;55.782;37.528;2023-05-20T05:59:19;100725.00;;;15.42;100.00
35435;BME280;21556;55.782;37.528;2023-05-20T06:01:47;100719.06;;;14.93;100.00
35435;BME280;21556;55.782;37.528;2023-05-20T06:04:40;100718.34;;;15.05;100.00
35435;BME280;21556;55.782;37.528;2023-05-20T06:07:08;100721.53;;;15.45;100.00
35435;BME280;21556;55.782;37.528;2023-05-20T06:09:35;100726.75;;;15.40;100.00
35435;BME280;21556;55.782;37.528;2023-05-20T06:12:02;100720.69;;;15.50;100.00
35435;BME280;21556;55.782;37.528;2023-05-20T06:14:28;100722.91;;;15.16;100.00
35435;BME280;21556;55.782;37.528;2023-05-20T06:16:54;100723.00;;;15.23;100.00
35435;BME280;21556;55.782;37.528;2023-05-20T06:19:21;100715.94;;;15.22;100.00
35435;BME280;21556;55.782;37.528;2023-05-20T06:21:48;100723.63;;;15.06;100.00
35435;BME280;21556;55.782;37.528;2023-05-20T06:24:14;100719.34;;;15.80;100.00
35435;BME280;21556;55.782;37.528;2023-05-20T06:26:40;100728.38;;;16.00;100.00
35435;BME280;21556;55.782;37.528;2023-05-20T06:29:07;100736.44;;;16.11;100.00
35435;BME280;21556;55.782;37.528;2023-05-20T06:31:38;100733.75;;;16.06;100.00
35435;BME280;21556;55.782;37.528;2023-05-20T06:34:05;100725.69;;;15.94;100.00
35435;BME280;21556;55.782;37.528;2023-05-20T06:36:32;100734.66;;;16.10;100.00
35435;BME280;21556;55.782;37.528;2023-05-20T06:38:59;100728.81;;;15.64;100.00
35435;BME280;21556;55.782;37.528;2023-05-20T06:41:29;100735.63;;;15.47;100.00
35435;BME280;21556;55.782;37.528;2023-05-20T06:43:57;100725.22;;;16.36;100.00
35435;BME280;21556;55.782;37.528;2023-05-20T06:46:49;100727.69;;;16.18;100.00
35435;BME280;21556;55.782;37.528;2023-05-20T06:49:15;100720.34;;;16.84;100.00
35435;BME280;21556;55.782;37.528;2023-05-20T06:51:43;100717.72;;;16.87;100.00
35435;BME280;21556;55.782;37.528;2023-05-20T06:54:09;100717.81;;;17.01;100.00
35435;BME280;21556;55.782;37.528;2023-05-20T06:56:35;100719.72;;;17.28;100.00
35435;BME280;21556;55.782;37.528;2023-05-20T06:59:01;100725.16;;;17.52;100.00
35435;BME280;21556;55.782;37.528;2023-05-20T07:01:29;100724.16;;;17.26;100.00
35435;BME280;21556;55.782;37.528;2023-05-20T07:03:56;100713.53;;;17.21;100.00
35435;BME280;21556;55.782;37.528;2023-05-20T07:06:31;100718.28;;;17.91;95.54
35435;BME280;21556;55.782;37.528;2023-05-20T07:09:01;100717.44;;;18.12;90.25
35435;BME280;21556;55.782;37.528;2023-05-20T07:11:28;100705.03;;;18.17;88.44
35435;BME280;21556;55.782;37.528;2023-05-20T07:13:58;100705.97;;;18.73;86.50
35435;BME280;21556;55.782;37.528;2023-05-20T07:16:25;100713.84;;;19.27;78.42
35435;BME280;21556;55.782;37.528;2023-05-20T07:18:54;100705.09;;;18.71;80.64
35435;BME280;21556;55.782;37.528;2023-05-20T07:21:25;100713.94;;;18.58;75.07
35435;BME280;21556;55.782;37.528;2023-05-20T07:24:10;100713.81;;;17.79;77.18
35435;BME280;21556;55.782;37.528;2023-05-20T07:26:37;100704.19;;;18.43;75.59
35435;BME280;21556;55.782;37.528;2023-05-20T07:29:03;100715.69;;;18.62;68.36
35435;BME280;21556;55.782;37.528;2023-05-20T07:31:30;100712.09;;;19.19;65.20
35435;BME280;21556;55.782;37.528;2023-05-20T07:33:57;100696.13;;;19.27;59.32
35435;BME280;21556;55.782;37.528;2023-05-20T07:36:26;100704.81;;;19.75;56.50
35435;BME280;21556;55.782;37.528;2023-05-20T07:38:53;100696.91;;;19.63;54.16
35435;BME280;21556;55.782;37.528;2023-05-20T07:41:20;100708.56;;;19.25;56.02
35435;BME280;21556;55.782;37.528;2023-05-20T07:43:47;100705.09;;;18.95;57.52
35435;BME280;21556;55.782;37.528;2023-05-20T07:46:13;100690.59;;;19.81;50.90
35435;BME280;21556;55.782;37.528;2023-05-20T07:48:41;100694.38;;;19.17;52.41
35435;BME280;21556;55.782;37.528;2023-05-20T07:51:07;100699.38;;;19.96;48.14
35435;BME280;21556;55.782;37.528;2023-05-20T07:53:33;100690.53;;;19.91;46.77
35435;BME280;21556;55.782;37.528;2023-05-20T07:56:01;100688.84;;;19.74;49.23
35435;BME280;21556;55.782;37.528;2023-05-20T07:58:29;100691.34;;;20.06;48.68
35435;BME280;21556;55.782;37.528;2023-05-20T08:00:56;100689.56;;;20.06;47.43
35435;BME280;21556;55.782;37.528;2023-05-20T08:03:22;100675.00;;;21.41;43.01
35435;BME280;21556;55.782;37.528;2023-05-20T08:06:03;100675.09;;;21.32;42.84
35435;BME280;21556;55.782;37.528;2023-05-20T08:08:29;100681.66;;;21.79;41.70
35435;BME280;21556;55.782;37.528;2023-05-20T08:11:08;100676.53;;;21.60;41.24
35435;BME280;21556;55.782;37.528;2023-05-20T08:13:36;100681.78;;;21.67;40.31
35435;BME280;21556;55.782;37.528;2023-05-20T08:16:06;100672.66;;;21.84;39.60
35435;BME280;21556;55.782;37.528;2023-05-20T08:18:36;100685.69;;;20.49;43.15
35435;BME280;21556;55.782;37.528;2023-05-20T08:21:06;100664.03;;;22.26;40.45
35435;BME280;21556;55.782;37.528;2023-05-20T08:23:37;100666.00;;;22.67;39.71
35435;BME280;21556;55.782;37.528;2023-05-20T08:26:06;100673.44;;;22.51;39.05
35435;BME280;21556;55.782;37.528;2023-05-20T08:28:36;100672.38;;;22.04;39.60
35435;BME280;21556;55.782;37.528;2023-05-20T08:31:03;100679.44;;;21.42;41.44
35435;BME280;21556;55.782;37.528;2023-05-20T08:33:32;100685.34;;;20.90;43.36
35435;BME280;21556;55.782;37.528;2023-05-20T08:36:00;100680.97;;;20.83;44.47
35435;BME280;21556;55.782;37.528;2023-05-20T08:38:30;100682.69;;;20.88;43.16
35435;BME280;21556;55.782;37.528;2023-05-20T08:40:58;100687.09;;;19.60;48.20
35435;BME280;21556;55.782;37.528;2023-05-20T08:43:27;100683.56;;;19.60;47.66
35435;BME280;21556;55.782;37.528;2023-05-20T08:45:58;100693.34;;;19.61;48.76
35435;BME280;21556;55.782;37.528;2023-05-20T08:48:34;100693.50;;;19.18;51.94
35435;BME280;21556;55.782;37.528;2023-05-20T08:51:05;100695.09;;;19.60;53.03
35435;BME280;21556;55.782;37.528;2023-05-20T08:53:36;100683.91;;;20.54;49.74
35435;BME280;21556;55.782;37.528;2023-05-20T08:56:04;100691.19;;;20.27;50.17
35435;BME280;21556;55.782;37.528;2023-05-20T08:58:34;100686.00;;;20.06;50.48
35435;BME280;21556;55.782;37.528;2023-05-20T09:01:05;100690.72;;;19.47;49.94
35435;BME280;21556;55.782;37.528;2023-05-20T09:03:35;100684.63;;;19.13;52.22
35435;BME280;21556;55.782;37.528;2023-05-20T09:06:08;100692.66;;;18.58;57.29
35435;BME280;21556;55.782;37.528;2023-05-20T09:08:35;100690.00;;;18.33;59.56
35435;BME280;21556;55.782;37.528;2023-05-20T09:11:02;100697.97;;;18.62;59.93
35435;BME280;21556;55.782;37.528;2023-05-20T09:13:30;100703.28;;;18.19;62.29
35435;BME280;21556;55.782;37.528;2023-05-20T09:15:59;100701.53;;;18.23;66.33
35435;BME280;21556;55.782;37.528;2023-05-20T09:18:28;100701.41;;;17.78;72.25
35435;BME280;21556;55.782;37.528;2023-05-20T09:21:03;100705.03;;;18.10;70.39
35435;BME280;21556;55.782;37.528;2023-05-20T09:23:31;100696.88;;;17.56;74.26
35435;BME280;21556;55.782;37.528;2023-05-20T09:25:59;100697.00;;;17.77;74.03
35435;BME280;21556;55.782;37.528;2023-05-20T09:28:29;100695.34;;;18.78;64.96
35435;BME280;21556;55.782;37.528;2023-05-20T09:31:04;100693.56;;;18.61;64.61
35435;BME280;21556;55.782;37.528;2023-05-20T09:33:47;100701.53;;;18.53;65.92
35435;BME280;21556;55.782;37.528;2023-05-20T09:36:19;100701.50;;;18.58;66.47
35435;BME280;21556;55.782;37.528;2023-05-20T09:38:53;100701.53;;;18.23;68.45
35435;BME280;21556;55.782;37.528;2023-05-20T09:41:38;100701.50;;;18.18;68.90
35435;BME280;21556;55.782;37.528;2023-05-20T09:44:06;100703.25;;;19.10;62.37
35435;BME280;21556;55.782;37.528;2023-05-20T09:46:37;100701.47;;;19.15;60.77
35435;BME280;21556;55.782;37.528;2023-05-20T09:49:05;100704.19;;;18.80;63.69
35435;BME280;21556;55.782;37.528;2023-05-20T09:51:35;100705.09;;;18.82;64.90
35435;BME280;21556;55.782;37.528;2023-05-20T09:54:04;100714.81;;;18.69;65.07
35435;BME280;21556;55.782;37.528;2023-05-20T09:56:34;100701.50;;;18.55;67.62
35435;BME280;21556;55.782;37.528;2023-05-20T09:59:01;100710.31;;;18.00;72.51
35435;BME280;21556;55.782;37.528;2023-05-20T10:01:31;100712.16;;;18.52;69.04
35435;BME280;21556;55.782;37.528;2023-05-20T10:04:03;100700.63;;;18.65;69.81
35435;BME280;21556;55.782;37.528;2023-05-20T10:09:34;100706.88;;;18.92;61.36
35435;BME280;21556;55.782;37.528;2023-05-20T10:12:25;100706.81;;;19.01;55.04
35435;BME280;21556;55.782;37.528;2023-05-20T10:17:39;100714.81;;;18.90;55.32
35435;BME280;21556;55.782;37.528;2023-05-20T10:20:11;100706.84;;;18.99;53.05
35435;BME280;21556;55.782;37.528;2023-05-20T10:22:38;100711.28;;;18.84;57.05
35435;BME280;21556;55.782;37.528;2023-05-20T10:25:23;100712.16;;;18.53;59.38
35435;BME280;21556;55.782;37.528;2023-05-20T10:28:09;100709.50;;;18.99;54.93
35435;BME280;21556;55.782;37.528;2023-05-20T10:30:47;100715.72;;;18.83;55.26
35435;BME280;21556;55.782;37.528;2023-05-20T10:33:16;100717.41;;;19.29;54.76
35435;BME280;21556;55.782;37.528;2023-05-20T10:35:48;100714.81;;;18.41;60.04
35435;BME280;21556;55.782;37.528;2023-05-20T10:38:15;100711.31;;;18.71;60.45
35435;BME280;21556;55.782;37.528;2023-05-20T10:40:41;100720.16;;;18.72;59.68
35435;BME280;21556;55.782;37.528;2023-05-20T10:43:15;100708.59;;;18.94;51.83
35435;BME280;21556;55.782;37.528;2023-05-20T10:45:57;100709.50;;;18.52;55.11
35435;BME280;21556;55.782;37.528;2023-05-20T10:48:26;100706.84;;;18.57;54.11
35435;BME280;21556;55.782;37.528;2023-05-20T10:50:59;100714.78;;;18.21;58.29
35435;BME280;21556;55.782;37.528;2023-05-20T10:53:41;100708.59;;;18.55;54.71
35435;BME280;21556;55.782;37.528;2023-05-20T10:56:17;100720.09;;;18.37;56.58
35435;BME280;21556;55.782;37.528;2023-05-20T10:58:45;100713.94;;;18.58;54.64
35435;BME280;21556;55.782;37.528;2023-05-20T11:01:11;100720.06;;;18.15;53.99
35435;BME280;21556;55.782;37.528;2023-05-20T11:03:42;100713.03;;;18.59;50.57
35435;BME280;21556;55.782;37.528;2023-05-20T11:06:16;100713.03;;;18.28;51.82
35435;BME280;21556;55.782;37.528;2023-05-20T11:08:46;100719.22;;;18.28;52.90
35435;BME280;21556;55.782;37.528;2023-05-20T11:11:13;100718.28;;;17.99;55.85
35435;BME280;21556;55.782;37.528;2023-05-20T11:13:41;100713.94;;;18.45;56.02
35435;BME280;21556;55.782;37.528;2023-05-20T11:16:08;100711.25;;;18.70;56.26
35435;BME280;21556;55.782;37.528;2023-05-20T11:21:44;100716.56;;;18.25;60.01
35435;BME280;21556;55.782;37.528;2023-05-20T11:24:23;100713.00;;;18.02;61.57
35435;BME280;21556;55.782;37.528;2023-05-20T11:26:54;100714.81;;;18.27;59.41
35435;BME280;21556;55.782;37.528;2023-05-20T11:29:25;100720.13;;;18.41;58.60
35435;BME280;21556;55.782;37.528;2023-05-20T11:31:58;100728.09;;;18.23;63.70
35435;BME280;21556;55.782;37.528;2023-05-20T11:34:37;100726.28;;;18.10;65.30
35435;BME280;21556;55.782;37.528;2023-05-20T11:37:22;100737.84;;;18.45;62.05
35435;BME280;21556;55.782;37.528;2023-05-20T11:40:06;100742.22;;;18.05;70.84
35435;BME280;21556;55.782;37.528;2023-05-20T11:42:35;100734.06;;;17.67;68.55
35435;BME280;21556;55.782;37.528;2023-05-20T11:45:04;100731.56;;;17.99;62.96
35435;BME280;21556;55.782;37.528;2023-05-20T11:47:30;100735.59;;;17.14;69.43
35435;BME280;21556;55.782;37.528;2023-05-20T11:49:58;100733.19;;;17.66;68.15
35435;BME280;21556;55.782;37.528;2023-05-20T11:52:28;100734.19;;;17.91;67.58
35435;BME280;21556;55.782;37.528;2023-05-20T11:54:57;100726.31;;;18.20;58.30
35435;BME280;21556;55.782;37.528;2023-05-20T11:57:24;100728.91;;;17.99;60.66
35435;BME280;21556;55.782;37.528;2023-05-20T12:00:01;100728.75;;;17.62;63.22
35435;BME280;21556;55.782;37.528;2023-05-20T12:02:32;100728.84;;;17.85;62.29
35435;BME280;21556;55.782;37.528;2023-05-20T12:05:06;100723.56;;;17.84;59.10
35435;BME280;21556;55.782;37.528;2023-05-20T12:07:34;100719.06;;;17.75;60.39
35435;BME280;21556;55.782;37.528;2023-05-20T12:10:10;100723.56;;;17.85;58.77
35435;BME280;21556;55.782;37.528;2023-05-20T12:12:44;100712.09;;;17.95;57.17
35435;BME280;21556;55.782;37.528;2023-05-20T12:15:16;100723.63;;;18.05;55.92
35435;BME280;21556;55.782;37.528;2023-05-20T12:17:49;100714.78;;;18.32;53.03
35435;BME280;21556;55.782;37.528;2023-05-20T12:20:20;100735.16;;;18.16;53.95
35435;BME280;21556;55.782;37.528;2023-05-20T12:22:50;100715.66;;;18.22;53.32
35435;BME280;21556;55.782;37.528;2023-05-20T12:25:31;100721.72;;;17.69;51.12
35435;BME280;21556;55.782;37.528;2023-05-20T12:28:01;100720.91;;;17.90;52.64
35435;BME280;21556;55.782;37.528;2023-05-20T12:30:30;100726.19;;;17.77;51.56
35435;BME280;21556;55.782;37.528;2023-05-20T12:32:59;100719.19;;;18.09;51.00
35435;BME280;21556;55.782;37.528;2023-05-20T12:35:40;100721.69;;;17.70;52.67
35435;BME280;21556;55.782;37.528;2023-05-20T12:38:08;100722.53;;;17.59;53.70
35435;BME280;21556;55.782;37.528;2023-05-20T12:40:35;100716.50;;;17.99;51.69
35435;BME280;21556;55.782;37.528;2023-05-20T12:43:02;100726.88;;;17.38;56.38
35435;BME280;21556;55.782;37.528;2023-05-20T12:45:29;100721.47;;;17.24;56.73
35435;BME280;21556;55.782;37.528;2023-05-20T12:47:56;100730.31;;;17.23;58.68
35435;BME280;21556;55.782;37.528;2023-05-20T12:50:23;100730.69;;;18.03;54.29
35435;BME280;21556;55.782;37.528;2023-05-20T12:52:49;100716.50;;;17.95;53.70
35435;BME280;21556;55.782;37.528;2023-05-20T12:55:15;100719.84;;;17.49;57.07